TFM - Tactical Decision Aid
ID: Runway Winds: CIG/VIS Threshold:

KFLL - Ft Lauderdale-Hollyw, FL, US

Updated at: 1812 UTC 19 Aug 2019
Latest TAF at: 1742 UTC 19 Aug 2019

TAF Board

Time1753Z 19/19Z 19/20Z 19/21Z 19/22Z 19/23Z 20/00Z 20/01Z 20/02Z 20/03Z 20/04Z 20/05Z 20/06Z 20/07Z>>
Type OBS PRVL PRVL PRVL PRVL PRVL PRVL PRVL PRVL PRVL PRVL PRVL PRVL PRVL
VIS 10 >6 >6 >6 >6 >6 >6 >6 >6 >6 >6 >6 >6 >6
CIG 30 -- -- -- -- -- -- -- -- -- -- -- -- --
Cover BKN SCT SCT SCT SCT SCT SCT SCT SCT SCT SCT SCT SCT SCT
FltCat MVFR VFR VFR VFR VFR VFR VFR VFR VFR VFR VFR VFR VFR VFR
WX -- VCTS VCTS VCTS VCTS -- -- -- -- -- -- VCSH VCSH VCSH
WDir 70 100 100 100 100 80 80 80 80 80 80 110 110 110
WSpd 10 15 15 15 15 8 8 8 8 8 8 4 4 4
WGst -- -- -- -- -- -- -- -- -- -- -- -- -- --

TDA Impact Legend

  None Marginal Slight Moderate High
Visibility (sm) >5 3≤X≤5 2≤X<3 0.75≤X<2 <0.75
Ceiling (100 ft) >30 10≤X≤30 6≤X<10 3≤X<6 <3
Wind Speed (kt) <15 15≤X<25 25≤X<30 ≥30
Wind Gust (kt) <15 15≤X<25 25≤X<35 ≥35
Weather No Wx Reported VCTS -TS,-FZRA TS,FZRA +TS,+FZRA
TAF
KFLL 191742Z 1918/2024 10015KT P6SM VCTS SCT030CB SCT050
  FM192300 08008KT P6SM FEW030 SCT050
  FM200500 11004KT P6SM VCSH SCT030
  FM201400 11014KT P6SM VCSH SCT030 BKN050


METAR
KFLL 191753Z 07010KT 10SM BKN030 BKN100 BKN250 32/24 A3005 RMK AO2 SLP175 T03170239 10322 20289 58009
KFLL 191653Z 10010G17KT 10SM BKN030 BKN100 BKN250 31/23 A3007 RMK AO2 SLP181 T03110233
KFLL 191553Z 09012KT 10SM FEW030 FEW100 FEW250 32/23 A3007 RMK AO2 SLP182 T03170233
KFLL 191453Z 11011KT 10SM FEW030 FEW055 FEW100 31/23 A3008 RMK AO2 SLP184 T03110228 51012

Radar Display
Forecast Discussion